Time;durP1;ratioP1;P1;durP2;ratioP2;P2;SDS_P1;SDS_P2;PMS_P1;PMS_P2;Temp;Humidity;BMP_temperature;BMP_pressure;BME280_temperature;BME280_humidity;BME280_pressure;Samples;Min_cycle;Max_cycle;Signal;HPM_P1;HPM_P2
2022/01/27 00:01:44;;;;;;;38.77;16.90;;;1.30;99.90;;;;;;5045413;28;20447;-72
2022/01/27 00:04:17;;;;;;;38.60;17.17;;;1.20;99.90;;;;;;5048225;28;20476;-72
2022/01/27 00:06:44;;;;;;;37.97;15.77;;;1.30;99.90;;;;;;5033886;28;20515;-72
2022/01/27 00:09:17;;;;;;;35.60;17.00;;;1.20;99.90;;;;;;5052994;28;20452;-72
2022/01/27 00:11:46;;;;;;;36.80;16.57;;;1.30;99.90;;;;;;5053648;28;20479;-72
2022/01/27 00:14:14;;;;;;;43.00;17.20;;;1.20;99.90;;;;;;5041399;28;20795;-72
2022/01/27 00:16:43;;;;;;;38.70;17.20;;;1.30;99.90;;;;;;5033512;28;20457;-72
2022/01/27 00:19:11;;;;;;;32.37;15.53;;;1.40;99.90;;;;;;5033113;28;20469;-72
2022/01/27 00:21:39;;;;;;;35.13;16.30;;;1.20;99.90;;;;;;5042107;28;20869;-72
2022/01/27 00:24:06;;;;;;;36.27;16.10;;;1.20;99.90;;;;;;5052390;28;20838;-72
2022/01/27 00:26:33;;;;;;;38.90;17.23;;;1.20;99.90;;;;;;5038303;28;20457;-72
2022/01/27 00:29:00;;;;;;;34.73;15.13;;;1.10;99.90;;;;;;5033170;28;20515;-73
2022/01/27 00:31:26;;;;;;;37.30;16.10;;;1.20;99.90;;;;;;5033359;28;20568;-72
2022/01/27 00:33:54;;;;;;;38.93;17.37;;;1.10;99.90;;;;;;5037990;28;20518;-73
2022/01/27 00:36:22;;;;;;;41.77;16.57;;;1.20;99.90;;;;;;5023992;28;20445;-73
2022/01/27 00:38:51;;;;;;;33.33;16.30;;;1.20;99.90;;;;;;5030860;28;20485;-72
2022/01/27 00:41:19;;;;;;;44.60;16.40;;;1.20;99.90;;;;;;5033477;28;20457;-72
2022/01/27 00:43:47;;;;;;;43.00;16.87;;;1.10;99.90;;;;;;5036531;28;20514;-72
2022/01/27 00:46:16;;;;;;;36.20;16.60;;;1.20;99.90;;;;;;5036024;28;20980;-72
2022/01/27 00:48:43;;;;;;;34.77;16.77;;;1.10;99.90;;;;;;5056288;23;20489;-76
2022/01/27 00:51:11;;;;;;;38.27;16.53;;;1.10;99.90;;;;;;5033388;28;20458;-76
2022/01/27 00:53:46;;;;;;;37.23;16.40;;;1.10;99.90;;;;;;5014260;28;20959;-77
2022/01/27 00:56:21;;;;;;;37.20;15.13;;;1.10;99.90;;;;;;5015022;28;20457;-76
2022/01/27 00:58:55;;;;;;;34.17;15.07;;;1.00;99.90;;;;;;5034013;28;20546;-76
2022/01/27 01:01:27;;;;;;;42.50;18.00;;;1.00;99.90;;;;;;5016492;28;20522;-77
2022/01/27 01:03:57;;;;;;;41.07;17.77;;;1.10;99.90;;;;;;5015164;28;20974;-77
2022/01/27 01:06:34;;;;;;;40.30;15.97;;;1.10;99.90;;;;;;5015673;28;20470;-76
2022/01/27 01:09:57;;;;;;;44.27;17.13;;;1.00;99.90;;;;;;5030321;28;20499;-76
2022/01/27 01:12:59;;;;;;;44.10;17.10;;;1.10;99.90;;;;;;5014151;28;20457;-77
2022/01/27 01:15:15;;;;;;;40.57;18.07;;;1.00;99.90;;;;;;5026412;28;20449;-77
2022/01/27 01:17:55;;;;;;;40.20;17.07;;;1.10;99.90;;;;;;5030450;28;20565;-77
2022/01/27 01:20:31;;;;;;;41.00;17.07;;;1.00;99.90;;;;;;5014490;28;20468;-76
2022/01/27 01:31:28;;;;;;;36.97;16.43;;;1.00;99.90;;;;;;5008134;28;20861;-76
2022/01/27 01:34:11;;;;;;;51.73;19.37;;;1.00;99.90;;;;;;5026008;28;20836;-76
2022/01/27 01:36:45;;;;;;;47.93;17.90;;;1.00;99.90;;;;;;5031284;28;20446;-77
2022/01/27 01:39:13;;;;;;;57.40;21.40;;;1.00;99.90;;;;;;5013493;28;20500;-77
2022/01/27 01:41:42;;;;;;;38.27;16.90;;;0.90;99.90;;;;;;5014665;28;20545;-77
2022/01/27 01:44:09;;;;;;;44.13;19.07;;;0.90;99.90;;;;;;5015659;28;20446;-77
2022/01/27 01:46:36;;;;;;;52.07;20.17;;;0.90;99.90;;;;;;5026502;28;21052;-76
2022/01/27 01:49:03;;;;;;;43.80;18.93;;;0.90;99.90;;;;;;5022081;28;20473;-77
2022/01/27 01:51:32;;;;;;;42.97;17.73;;;0.90;99.90;;;;;;5028961;28;20458;-76
2022/01/27 01:53:59;;;;;;;45.20;19.30;;;0.90;99.90;;;;;;5015208;28;20537;-77
2022/01/27 01:56:26;;;;;;;43.97;19.00;;;0.90;99.90;;;;;;5014701;28;20500;-76
2022/01/27 01:58:55;;;;;;;52.50;19.80;;;0.80;99.90;;;;;;5013382;28;20916;-76
2022/01/27 02:01:21;;;;;;;48.70;17.73;;;0.90;99.90;;;;;;5015068;28;20458;-76
2022/01/27 02:03:48;;;;;;;47.87;19.83;;;0.90;99.90;;;;;;5016435;28;20911;-77
2022/01/27 02:06:22;;;;;;;49.13;18.20;;;0.80;99.90;;;;;;5030451;28;20519;-76
2022/01/27 02:09:06;;;;;;;33.93;15.40;;;0.80;99.90;;;;;;5033713;28;20469;-76
2022/01/27 02:19:51;;;;;;;45.37;17.40;;;0.90;99.90;;;;;;5020070;28;20453;-76
2022/01/27 02:22:19;;;;;;;46.10;17.97;;;0.90;99.90;;;;;;5010697;28;20462;-77
2022/01/27 02:24:47;;;;;;;43.97;17.87;;;0.90;99.90;;;;;;5012923;28;20446;-76
2022/01/27 02:27:15;;;;;;;49.83;18.10;;;0.80;99.90;;;;;;5004298;28;20446;-76
2022/01/27 02:29:44;;;;;;;52.60;18.97;;;0.80;99.90;;;;;;5016786;28;21219;-76
2022/01/27 02:32:12;;;;;;;42.03;17.60;;;0.80;99.90;;;;;;5012888;28;20450;-76
2022/01/27 02:34:39;;;;;;;45.10;18.83;;;0.80;99.90;;;;;;5002467;28;20552;-76
2022/01/27 02:37:08;;;;;;;46.17;18.23;;;0.90;99.90;;;;;;5022581;28;20520;-76
2022/01/27 02:39:35;;;;;;;49.43;18.37;;;0.80;99.90;;;;;;5019166;28;20556;-77
2022/01/27 02:42:07;;;;;;;42.90;17.50;;;0.90;99.90;;;;;;5013093;28;20579;-76
2022/01/27 02:44:39;;;;;;;45.33;16.17;;;0.90;99.90;;;;;;5023461;28;20469;-76
2022/01/27 02:47:06;;;;;;;37.87;14.47;;;0.90;99.90;;;;;;5032277;28;20449;-77
2022/01/27 02:49:33;;;;;;;34.17;15.10;;;1.00;99.90;;;;;;5032193;28;20508;-76
2022/01/27 02:51:59;;;;;;;35.20;15.10;;;0.90;99.90;;;;;;5009471;28;20509;-76
2022/01/27 02:54:28;;;;;;;39.57;14.50;;;0.90;99.90;;;;;;5009914;28;20458;-76
2022/01/27 02:56:55;;;;;;;50.80;14.83;;;0.90;99.90;;;;;;5031964;28;20948;-77
2022/01/27 02:59:22;;;;;;;43.27;14.43;;;0.90;99.90;;;;;;5031069;28;20496;-76
2022/01/27 03:01:51;;;;;;;38.23;14.10;;;0.90;99.90;;;;;;5032655;28;20508;-76
2022/01/27 03:04:19;;;;;;;41.23;14.60;;;1.00;99.90;;;;;;5026316;28;20458;-76
2022/01/27 03:06:47;;;;;;;33.53;12.83;;;1.00;99.90;;;;;;5012652;28;20462;-76
2022/01/27 03:09:14;;;;;;;41.57;14.63;;;0.90;99.90;;;;;;5009620;28;20499;-76
2022/01/27 03:11:46;;;;;;;30.23;12.53;;;0.90;99.90;;;;;;5032169;28;20976;-76
2022/01/27 03:14:14;;;;;;;36.77;12.87;;;1.00;99.90;;;;;;5022885;28;20458;-76
2022/01/27 03:16:41;;;;;;;40.07;14.33;;;0.90;99.90;;;;;;5025558;28;20871;-76
2022/01/27 03:19:08;;;;;;;43.13;15.07;;;0.90;99.90;;;;;;5017815;28;20887;-76
2022/01/27 03:21:35;;;;;;;41.47;15.07;;;0.90;99.90;;;;;;5012805;28;20459;-76
2022/01/27 03:24:02;;;;;;;43.77;13.90;;;0.90;99.90;;;;;;5011949;28;20458;-76
2022/01/27 03:26:29;;;;;;;56.87;16.97;;;0.90;99.90;;;;;;5007777;28;20474;-76
2022/01/27 03:28:58;;;;;;;56.00;20.03;;;0.90;99.90;;;;;;5012213;28;20474;-76
2022/01/27 03:31:25;;;;;;;50.83;17.23;;;0.80;99.90;;;;;;5020743;28;20508;-76
2022/01/27 03:33:52;;;;;;;59.10;18.90;;;0.80;99.90;;;;;;5031911;28;20858;-76
2022/01/27 03:36:19;;;;;;;49.77;16.60;;;0.80;99.90;;;;;;5030673;28;20449;-77
2022/01/27 03:38:46;;;;;;;55.33;16.47;;;0.80;99.90;;;;;;5011397;28;20536;-76
2022/01/27 03:41:20;;;;;;;58.87;18.60;;;0.80;99.90;;;;;;5013135;28;20942;-76
2022/01/27 03:43:47;;;;;;;61.27;18.23;;;0.80;99.90;;;;;;5012540;28;20489;-76
2022/01/27 03:46:17;;;;;;;52.00;17.40;;;0.90;99.90;;;;;;5024285;28;20512;-76
2022/01/27 03:48:44;;;;;;;58.83;17.67;;;0.80;99.90;;;;;;5031024;28;20542;-76
2022/01/27 03:51:11;;;;;;;61.90;20.50;;;0.80;99.90;;;;;;5006094;28;20955;-76
2022/01/27 03:53:37;;;;;;;58.40;17.37;;;0.80;99.90;;;;;;5025767;28;20504;-76
2022/01/27 03:56:05;;;;;;;62.30;19.93;;;0.80;99.90;;;;;;5017427;28;20489;-76
2022/01/27 03:58:31;;;;;;;60.47;19.30;;;0.80;99.90;;;;;;5027648;28;20484;-76
2022/01/27 04:00:58;;;;;;;40.77;15.53;;;0.80;99.90;;;;;;5035596;28;20456;-76
2022/01/27 04:03:28;;;;;;;59.97;19.73;;;0.80;99.90;;;;;;5032823;28;20993;-76
2022/01/27 04:05:56;;;;;;;67.90;20.00;;;0.80;99.90;;;;;;5022484;28;20454;-76
2022/01/27 04:08:25;;;;;;;49.60;16.53;;;0.70;99.90;;;;;;5034535;28;20485;-76
2022/01/27 04:10:51;;;;;;;59.13;19.60;;;0.70;99.90;;;;;;5024379;28;20517;-76
2022/01/27 04:13:18;;;;;;;47.30;18.27;;;0.70;99.90;;;;;;5000036;28;21224;-76
2022/01/27 04:15:45;;;;;;;59.87;20.33;;;0.70;99.90;;;;;;5034477;28;20787;-76
2022/01/27 04:18:13;;;;;;;61.20;19.17;;;0.70;99.90;;;;;;5033674;28;20516;-76
2022/01/27 04:20:42;;;;;;;53.70;18.93;;;0.80;99.90;;;;;;5020626;28;20516;-76
2022/01/27 04:23:10;;;;;;;47.17;15.00;;;0.70;99.90;;;;;;5014325;28;20512;-76
2022/01/27 04:25:38;;;;;;;57.93;17.67;;;0.70;99.90;;;;;;5012759;28;21040;-76
2022/01/27 04:28:08;;;;;;;53.90;17.20;;;0.70;99.90;;;;;;5015928;28;20470;-76
2022/01/27 04:30:35;;;;;;;52.60;18.63;;;0.70;99.90;;;;;;5023386;28;20458;-76
2022/01/27 04:33:03;;;;;;;44.70;17.53;;;0.70;99.90;;;;;;5020845;28;20479;-76
2022/01/27 04:35:34;;;;;;;57.70;19.57;;;0.70;99.90;;;;;;5029209;28;20513;-76
2022/01/27 04:38:16;;;;;;;54.67;17.33;;;0.80;99.90;;;;;;5013199;28;20553;-76
2022/01/27 04:40:50;;;;;;;54.93;18.20;;;0.70;99.90;;;;;;5015473;28;20458;-76
2022/01/27 04:43:25;;;;;;;59.77;19.60;;;0.70;99.90;;;;;;5015472;28;20496;-76
2022/01/27 04:46:00;;;;;;;54.83;17.80;;;0.80;99.90;;;;;;5021486;28;20459;-76
2022/01/27 04:48:31;;;;;;;58.67;18.67;;;0.70;99.90;;;;;;5034672;28;20481;-76
2022/01/27 04:51:05;;;;;;;55.10;19.10;;;0.80;99.90;;;;;;5026434;28;20458;-76
2022/01/27 04:53:37;;;;;;;58.07;17.90;;;0.70;99.90;;;;;;4995255;28;20492;-76
2022/01/27 04:56:06;;;;;;;58.37;17.77;;;0.70;99.90;;;;;;4995524;28;20459;-76
2022/01/27 04:58:34;;;;;;;59.47;21.00;;;0.70;99.90;;;;;;5034089;28;20568;-76
2022/01/27 05:01:03;;;;;;;57.87;16.60;;;0.70;99.90;;;;;;5015997;28;20978;-76
2022/01/27 05:03:37;;;;;;;55.23;18.47;;;0.70;99.90;;;;;;5001444;28;20611;-76
2022/01/27 05:06:04;;;;;;;65.70;19.30;;;0.80;99.90;;;;;;5012025;28;20457;-76
2022/01/27 05:08:30;;;;;;;48.73;16.73;;;0.70;99.90;;;;;;5032395;28;20612;-76
2022/01/27 05:11:02;;;;;;;67.30;17.87;;;0.80;99.90;;;;;;5018146;28;20453;-76
2022/01/27 05:13:36;;;;;;;64.63;19.50;;;0.80;99.90;;;;;;5022029;28;20462;-76
2022/01/27 05:16:03;;;;;;;56.73;19.70;;;0.70;99.90;;;;;;5020139;28;20461;-76
2022/01/27 05:18:30;;;;;;;60.13;19.03;;;0.80;99.90;;;;;;5033023;28;20480;-75
2022/01/27 05:20:57;;;;;;;56.73;18.80;;;0.80;99.90;;;;;;5034042;28;20462;-76
2022/01/27 05:23:23;;;;;;;55.70;18.80;;;0.80;99.90;;;;;;5023761;28;20450;-76
2022/01/27 05:25:50;;;;;;;53.07;18.37;;;0.80;99.90;;;;;;5014139;28;20489;-76
2022/01/27 05:28:18;;;;;;;48.60;17.90;;;0.80;99.90;;;;;;5014660;28;20478;-77
2022/01/27 05:30:45;;;;;;;61.47;19.57;;;0.80;99.90;;;;;;5017970;28;20450;-76
2022/01/27 05:33:12;;;;;;;55.47;16.80;;;0.80;99.90;;;;;;5028224;28;20454;-76
2022/01/27 05:35:38;;;;;;;54.30;18.53;;;0.80;99.90;;;;;;5015205;28;20492;-77
2022/01/27 05:38:05;;;;;;;52.30;18.13;;;0.80;99.90;;;;;;5014039;28;20466;-76
2022/01/27 05:40:32;;;;;;;59.00;18.67;;;0.80;99.90;;;;;;5030500;28;21213;-76
2022/01/27 05:42:58;;;;;;;53.00;16.90;;;0.80;99.90;;;;;;5013645;28;20455;-76
2022/01/27 05:45:26;;;;;;;54.07;17.33;;;0.90;99.90;;;;;;5013364;28;20505;-76
2022/01/27 05:47:53;;;;;;;56.83;17.93;;;0.90;99.90;;;;;;5026716;28;20481;-76
2022/01/27 05:50:20;;;;;;;50.27;17.27;;;0.90;99.90;;;;;;5032574;28;20457;-76
2022/01/27 05:52:46;;;;;;;55.77;16.80;;;0.90;99.90;;;;;;5016062;28;20458;-76
2022/01/27 05:55:13;;;;;;;58.23;16.67;;;0.90;99.90;;;;;;5021232;28;20461;-76
2022/01/27 05:57:40;;;;;;;56.10;16.63;;;0.90;99.90;;;;;;5024917;28;20474;-76
2022/01/27 06:00:07;;;;;;;52.20;16.47;;;0.90;99.90;;;;;;5006476;28;20501;-76
2022/01/27 06:02:35;;;;;;;50.10;15.23;;;0.90;99.90;;;;;;5014047;28;20454;-76
2022/01/27 06:05:03;;;;;;;55.23;16.23;;;0.90;99.90;;;;;;5012807;28;20462;-76
2022/01/27 06:07:30;;;;;;;48.27;17.77;;;0.80;99.90;;;;;;5030762;28;20560;-76
2022/01/27 06:09:57;;;;;;;54.07;16.17;;;0.80;99.90;;;;;;5014431;28;20454;-76
2022/01/27 06:12:23;;;;;;;47.80;14.53;;;0.80;99.90;;;;;;5014847;28;20458;-76
2022/01/27 06:14:50;;;;;;;54.20;16.50;;;0.80;99.90;;;;;;5012779;28;20458;-76
2022/01/27 06:17:17;;;;;;;41.23;15.43;;;0.90;99.90;;;;;;5012807;28;20723;-76
2022/01/27 06:19:46;;;;;;;54.57;16.50;;;0.90;99.90;;;;;;5016455;28;20481;-77
2022/01/27 06:22:14;;;;;;;47.03;15.33;;;0.90;99.90;;;;;;5010419;28;20486;-77
2022/01/27 06:24:41;;;;;;;48.40;15.60;;;0.90;99.90;;;;;;5015367;28;21039;-77
2022/01/27 06:27:08;;;;;;;53.87;16.40;;;0.90;99.90;;;;;;5015645;28;20821;-77
2022/01/27 06:29:35;;;;;;;44.00;15.57;;;0.90;99.90;;;;;;5014520;28;20454;-77
2022/01/27 06:32:03;;;;;;;53.07;15.07;;;0.90;99.90;;;;;;5021855;28;20462;-77
2022/01/27 06:34:30;;;;;;;40.57;13.77;;;0.90;99.90;;;;;;5030255;28;20453;-76
2022/01/27 06:36:58;;;;;;;44.07;13.83;;;0.90;99.90;;;;;;5026253;28;20585;-77
2022/01/27 06:39:25;;;;;;;51.77;14.80;;;0.90;99.90;;;;;;5021697;28;20998;-77
2022/01/27 06:41:52;;;;;;;42.43;14.53;;;0.90;99.90;;;;;;5014630;28;20450;-77
2022/01/27 06:44:19;;;;;;;47.07;16.13;;;0.90;99.90;;;;;;5015269;28;20454;-77
2022/01/27 06:46:46;;;;;;;40.10;13.27;;;0.90;99.90;;;;;;5015526;28;20504;-77
2022/01/27 06:49:16;;;;;;;50.43;15.47;;;0.90;99.90;;;;;;5025706;28;20509;-76
2022/01/27 06:51:43;;;;;;;33.70;11.40;;;0.90;99.90;;;;;;5013119;28;20509;-75
2022/01/27 06:54:12;;;;;;;48.93;14.50;;;1.00;99.90;;;;;;5013725;28;20457;-76
2022/01/27 06:56:39;;;;;;;43.93;15.70;;;0.90;99.90;;;;;;5012830;28;21009;-75
2022/01/27 06:59:06;;;;;;;42.40;13.47;;;1.00;99.90;;;;;;5012527;28;20488;-75
2022/01/27 07:01:32;;;;;;;48.93;16.70;;;1.00;99.90;;;;;;5011870;28;20450;-73
2022/01/27 07:03:59;;;;;;;57.13;15.83;;;1.00;99.90;;;;;;5021622;28;20507;-74
2022/01/27 07:06:26;;;;;;;45.67;14.27;;;1.10;99.90;;;;;;5028377;28;20453;-73
2022/01/27 07:08:53;;;;;;;44.20;15.03;;;1.00;99.90;;;;;;5015550;28;20546;-74
2022/01/27 07:11:21;;;;;;;41.43;13.20;;;1.10;99.90;;;;;;5030750;28;20454;-74
2022/01/27 07:13:48;;;;;;;45.67;14.53;;;1.10;99.90;;;;;;5031456;28;20887;-72
2022/01/27 07:16:14;;;;;;;44.97;14.77;;;1.10;99.90;;;;;;5014903;28;20888;-73
2022/01/27 07:18:41;;;;;;;37.27;12.80;;;1.10;99.90;;;;;;5008735;28;20478;-74
2022/01/27 07:21:08;;;;;;;39.10;13.83;;;1.10;99.90;;;;;;5013051;28;20575;-74
2022/01/27 07:23:35;;;;;;;42.03;14.87;;;1.10;99.90;;;;;;5027407;28;20822;-75
2022/01/27 07:26:01;;;;;;;37.63;13.40;;;1.10;99.90;;;;;;5011668;28;20454;-73
2022/01/27 07:28:29;;;;;;;48.33;14.23;;;1.20;99.90;;;;;;5008719;28;20561;-75
2022/01/27 07:30:56;;;;;;;45.90;14.33;;;1.20;99.90;;;;;;5024513;28;20441;-74
2022/01/27 07:33:23;;;;;;;41.40;14.40;;;1.20;99.90;;;;;;5031058;28;20507;-73
2022/01/27 07:35:50;;;;;;;40.20;13.77;;;1.20;99.90;;;;;;5016408;28;20519;-74
2022/01/27 07:38:17;;;;;;;44.90;14.30;;;1.20;99.90;;;;;;5027349;28;21056;-73
2022/01/27 07:40:43;;;;;;;41.83;14.37;;;1.20;99.90;;;;;;5018234;28;21210;-73
2022/01/27 07:43:11;;;;;;;34.10;13.83;;;1.30;99.90;;;;;;5002922;28;20935;-74
2022/01/27 07:45:39;;;;;;;43.87;14.23;;;1.30;99.90;;;;;;5032072;28;20459;-74
2022/01/27 07:48:06;;;;;;;39.80;13.67;;;1.30;99.90;;;;;;5020412;28;20482;-74
2022/01/27 07:50:32;;;;;;;43.20;15.83;;;1.40;99.90;;;;;;5013504;28;20867;-75
2022/01/27 07:52:59;;;;;;;48.50;15.67;;;1.40;99.90;;;;;;5018821;28;20464;-74
2022/01/27 07:55:27;;;;;;;42.30;16.23;;;1.40;99.90;;;;;;5027226;28;20462;-74
2022/01/27 07:57:54;;;;;;;47.83;16.17;;;1.50;99.90;;;;;;5013403;28;20478;-74
2022/01/27 08:00:20;;;;;;;46.77;16.63;;;1.30;99.90;;;;;;5013795;28;20528;-74
2022/01/27 08:02:48;;;;;;;43.97;16.63;;;1.40;99.90;;;;;;5013440;28;20454;-73
2022/01/27 08:05:15;;;;;;;46.30;16.17;;;1.30;99.90;;;;;;5011627;28;20878;-74
2022/01/27 08:07:41;;;;;;;44.30;16.30;;;1.40;99.90;;;;;;5027808;28;20489;-74
2022/01/27 08:10:09;;;;;;;48.47;18.20;;;1.40;99.90;;;;;;5030989;28;20454;-72
2022/01/27 08:12:40;;;;;;;48.13;17.83;;;1.40;99.90;;;;;;5033314;28;20453;-75
2022/01/27 08:15:08;;;;;;;50.70;16.27;;;1.40;99.90;;;;;;5028499;28;20537;-73
2022/01/27 08:17:35;;;;;;;47.27;16.43;;;1.40;99.90;;;;;;5017181;28;20989;-71
2022/01/27 08:20:03;;;;;;;56.90;18.93;;;1.40;99.90;;;;;;5012854;28;20482;-73
2022/01/27 08:22:31;;;;;;;40.67;16.60;;;1.50;99.90;;;;;;5013177;28;20509;-74
2022/01/27 08:24:58;;;;;;;43.27;17.37;;;1.40;99.90;;;;;;5023894;28;20463;-73
2022/01/27 08:27:29;;;;;;;52.10;18.53;;;1.50;99.90;;;;;;5015454;28;20568;-73
2022/01/27 08:30:01;;;;;;;58.87;17.93;;;1.50;99.90;;;;;;5009121;28;20448;-74
2022/01/27 08:32:39;;;;;;;52.97;17.83;;;1.50;99.90;;;;;;5032981;28;20464;-74
2022/01/27 08:35:10;;;;;;;44.40;17.30;;;1.60;99.90;;;;;;5025382;28;20462;-72
2022/01/27 08:37:37;;;;;;;49.80;19.00;;;1.60;99.90;;;;;;5011265;28;20553;-72
2022/01/27 08:40:04;;;;;;;45.23;19.60;;;1.60;99.90;;;;;;5005657;28;20555;-74
2022/01/27 08:42:31;;;;;;;48.63;19.23;;;1.70;99.90;;;;;;5030144;28;20473;-74
2022/01/27 08:44:58;;;;;;;53.40;18.97;;;1.70;99.90;;;;;;5025691;28;20465;-74
2022/01/27 08:47:26;;;;;;;56.33;19.43;;;1.80;99.90;;;;;;5010912;28;20474;-76
2022/01/27 08:49:52;;;;;;;55.70;21.93;;;1.80;99.90;;;;;;5012073;28;20515;-75
2022/01/27 08:52:20;;;;;;;56.50;21.20;;;1.80;99.90;;;;;;5010013;28;20446;-75
2022/01/27 08:54:47;;;;;;;50.63;19.43;;;1.80;99.90;;;;;;5019609;28;20458;-76
2022/01/27 08:57:13;;;;;;;41.90;17.20;;;1.90;99.90;;;;;;5016691;28;20558;-76
2022/01/27 08:59:40;;;;;;;35.80;15.70;;;2.00;99.90;;;;;;5012556;28;20458;-75
2022/01/27 09:02:07;;;;;;;36.53;14.43;;;2.20;99.90;;;;;;5012379;28;20454;-74
2022/01/27 09:04:34;;;;;;;34.63;14.33;;;2.30;99.90;;;;;;5002744;28;20482;-74
2022/01/27 09:07:01;;;;;;;42.77;14.50;;;2.50;99.90;;;;;;5013460;28;20507;-72
2022/01/27 09:09:29;;;;;;;37.33;14.63;;;2.60;99.90;;;;;;5020435;28;20473;-74
2022/01/27 09:11:58;;;;;;;31.80;13.27;;;2.80;99.90;;;;;;5016534;28;20515;-73
2022/01/27 09:14:28;;;;;;;26.10;11.90;;;2.80;99.90;;;;;;5013959;28;20473;-73
2022/01/27 09:16:55;;;;;;;34.40;13.30;;;2.90;99.90;;;;;;5029549;28;20453;-75
2022/01/27 09:19:21;;;;;;;40.73;13.73;;;3.00;99.90;;;;;;5028051;28;20508;-75
2022/01/27 09:21:48;;;;;;;35.60;14.23;;;3.10;99.90;;;;;;5015947;28;20490;-74
2022/01/27 09:24:18;;;;;;;38.93;14.40;;;3.10;99.90;;;;;;5008967;28;20541;-75
2022/01/27 09:26:53;;;;;;;29.33;13.80;;;3.20;99.90;;;;;;5011720;28;20554;-75
2022/01/27 09:29:22;;;;;;;39.33;14.70;;;3.20;99.90;;;;;;5007410;28;20985;-73
2022/01/27 09:31:49;;;;;;;39.30;13.40;;;3.20;99.90;;;;;;5033166;28;20444;-75
2022/01/27 09:34:16;;;;;;;46.23;16.13;;;3.30;99.90;;;;;;5028961;28;20481;-74
2022/01/27 09:36:43;;;;;;;39.53;13.83;;;3.30;99.90;;;;;;5013506;28;20457;-73
2022/01/27 09:39:10;;;;;;;30.17;13.73;;;3.40;99.90;;;;;;5016659;28;20854;-74
2022/01/27 09:41:39;;;;;;;29.60;12.33;;;3.40;99.90;;;;;;5010019;28;20486;-74
2022/01/27 09:44:11;;;;;;;38.27;15.00;;;3.40;99.90;;;;;;5015140;28;20512;-74
2022/01/27 09:46:40;;;;;;;36.93;15.07;;;3.50;99.90;;;;;;5022440;28;20466;-73
2022/01/27 09:49:12;;;;;;;31.60;13.30;;;3.50;99.90;;;;;;5024774;28;20564;-73
2022/01/27 09:51:43;;;;;;;33.97;13.17;;;3.50;99.90;;;;;;5008461;28;20454;-74
2022/01/27 09:54:10;;;;;;;31.73;13.37;;;3.50;99.90;;;;;;5012319;28;21263;-73
2022/01/27 09:56:40;;;;;;;33.07;14.33;;;3.50;99.90;;;;;;5021915;28;20481;-74
2022/01/27 09:59:09;;;;;;;35.53;12.50;;;3.60;99.90;;;;;;5017938;28;20473;-74
2022/01/27 10:01:36;;;;;;;33.73;14.57;;;3.50;99.90;;;;;;5014623;28;20486;-74
2022/01/27 10:04:05;;;;;;;41.00;14.10;;;3.50;99.90;;;;;;5013390;28;20461;-74
2022/01/27 10:06:34;;;;;;;32.40;13.10;;;3.60;99.90;;;;;;5012334;28;20869;-73
2022/01/27 10:09:14;;;;;;;33.43;12.43;;;3.40;99.90;;;;;;5011087;28;20478;-74
2022/01/27 10:11:42;;;;;;;36.80;13.87;;;3.60;99.90;;;;;;5017866;28;20541;-71
2022/01/27 10:14:32;;;;;;;33.53;13.87;;;3.60;99.90;;;;;;5016018;28;20457;-73
2022/01/27 10:17:01;;;;;;;23.90;9.93;;;3.60;99.90;;;;;;5016694;28;20458;-75
2022/01/27 10:19:28;;;;;;;31.27;13.90;;;3.60;99.90;;;;;;5026019;28;21013;-75
2022/01/27 10:22:01;;;;;;;33.77;12.80;;;3.60;99.90;;;;;;5011961;28;20489;-74
2022/01/27 10:24:30;;;;;;;30.70;11.90;;;3.70;99.90;;;;;;5003213;28;20462;-74
2022/01/27 10:27:21;;;;;;;33.87;13.30;;;3.70;99.90;;;;;;5013680;28;21245;-75
2022/01/27 10:30:35;;;;;;;31.70;12.70;;;3.70;99.90;;;;;;5017763;28;20462;-74
2022/01/27 10:32:50;;;;;;;26.73;11.43;;;3.70;99.90;;;;;;5015679;28;20448;-73
2022/01/27 10:35:20;;;;;;;28.97;11.00;;;3.70;99.90;;;;;;5031557;28;20466;-74
2022/01/27 10:37:59;;;;;;;32.40;12.87;;;3.80;99.90;;;;;;5020767;28;20481;-74
2022/01/27 10:40:29;;;;;;;30.63;13.20;;;3.80;99.90;;;;;;5024691;28;20489;-74
2022/01/27 10:43:02;;;;;;;35.17;14.13;;;3.80;99.90;;;;;;5017682;28;20465;-74
2022/01/27 10:45:29;;;;;;;30.80;12.43;;;3.80;99.90;;;;;;5024171;28;20497;-75
2022/01/27 10:48:12;;;;;;;28.87;12.67;;;3.80;99.90;;;;;;5016134;28;20492;-75
2022/01/27 10:50:49;;;;;;;31.27;13.40;;;3.80;99.90;;;;;;5031466;28;20485;-75
2022/01/27 10:53:16;;;;;;;36.63;14.03;;;3.80;99.90;;;;;;5015323;28;20476;-75
2022/01/27 10:55:43;;;;;;;29.40;12.63;;;3.80;99.90;;;;;;5023655;28;20469;-75
2022/01/27 10:58:26;;;;;;;29.10;12.83;;;3.80;99.90;;;;;;5021237;28;20512;-73
2022/01/27 11:00:59;;;;;;;36.77;13.37;;;3.90;99.90;;;;;;5006291;28;20485;-75
2022/01/27 11:03:26;;;;;;;30.40;13.90;;;3.90;99.90;;;;;;5030302;28;20564;-75
2022/01/27 11:05:54;;;;;;;27.40;11.10;;;3.90;99.90;;;;;;5012772;28;20508;-75
2022/01/27 11:08:23;;;;;;;29.40;12.90;;;3.80;99.90;;;;;;5010936;28;20478;-75
2022/01/27 11:10:51;;;;;;;28.40;11.93;;;3.90;99.90;;;;;;5017289;28;20453;-75
2022/01/27 11:13:19;;;;;;;32.80;12.60;;;3.90;99.90;;;;;;5012805;28;20458;-75
2022/01/27 11:15:46;;;;;;;32.00;11.70;;;3.90;99.90;;;;;;5013355;28;20468;-75
2022/01/27 11:18:15;;;;;;;24.27;9.80;;;3.90;99.90;;;;;;5031488;28;20482;-75
2022/01/27 11:20:53;;;;;;;27.40;12.07;;;3.90;99.90;;;;;;5029908;28;20512;-73
2022/01/27 11:23:47;;;;;;;39.40;13.80;;;3.90;99.90;;;;;;5017555;28;20463;-75
2022/01/27 11:26:22;;;;;;;20.20;10.27;;;3.90;99.90;;;;;;5008897;28;21021;-72
2022/01/27 11:28:51;;;;;;;32.17;13.33;;;3.90;99.90;;;;;;5007416;28;20478;-74
2022/01/27 11:31:34;;;;;;;27.30;12.03;;;4.00;99.90;;;;;;5011035;28;20870;-74
2022/01/27 11:34:03;;;;;;;25.00;10.93;;;4.00;99.90;;;;;;5008911;28;20958;-72
2022/01/27 11:36:31;;;;;;;21.43;10.23;;;4.00;99.90;;;;;;5021414;28;20459;-74
2022/01/27 11:38:59;;;;;;;28.37;11.57;;;4.00;99.90;;;;;;5031488;28;20492;-73
2022/01/27 11:41:37;;;;;;;24.67;11.60;;;4.00;99.90;;;;;;5008602;28;20486;-73
2022/01/27 11:44:24;;;;;;;25.27;11.27;;;4.10;99.90;;;;;;4998479;28;21067;-74
2022/01/27 11:47:18;;;;;;;29.63;12.17;;;4.20;99.90;;;;;;5005049;28;21016;-74
2022/01/27 11:50:07;;;;;;;33.87;11.47;;;4.20;99.90;;;;;;5029498;28;20465;-74
2022/01/27 11:52:35;;;;;;;30.43;12.63;;;4.20;99.90;;;;;;5004626;28;20471;-74
2022/01/27 11:55:35;;;;;;;21.43;10.60;;;4.20;99.90;;;;;;5011101;28;20458;-74
2022/01/27 11:58:13;;;;;;;27.83;12.07;;;4.20;99.90;;;;;;5011823;28;20480;-74
2022/01/27 12:00:40;;;;;;;25.03;10.80;;;4.20;99.90;;;;;;5017727;28;20512;-74
2022/01/27 12:03:13;;;;;;;32.20;13.10;;;4.20;99.90;;;;;;5025746;28;20495;-73
2022/01/27 12:05:45;;;;;;;32.03;11.90;;;4.20;99.90;;;;;;5030416;28;20869;-74
2022/01/27 12:08:25;;;;;;;21.17;10.90;;;4.30;99.90;;;;;;5030428;28;20512;-73
2022/01/27 12:10:56;;;;;;;29.93;12.37;;;4.20;99.90;;;;;;5030504;28;20806;-72
2022/01/27 12:13:55;;;;;;;27.47;11.37;;;4.20;99.90;;;;;;5012086;28;21034;-73
2022/01/27 12:16:52;;;;;;;29.47;13.17;;;4.30;99.90;;;;;;5028361;28;20576;-72
2022/01/27 12:19:19;;;;;;;27.77;11.03;;;4.30;99.90;;;;;;5004469;28;20827;-72
2022/01/27 12:22:00;;;;;;;24.47;11.50;;;4.30;99.90;;;;;;5017267;28;20481;-73
2022/01/27 12:24:28;;;;;;;23.07;9.63;;;4.30;99.90;;;;;;5023391;28;20473;-72
2022/01/27 12:26:57;;;;;;;29.83;11.07;;;4.30;99.90;;;;;;5012892;28;20504;-73
2022/01/27 12:29:27;;;;;;;24.50;10.80;;;4.30;99.90;;;;;;5006816;28;20510;-74
2022/01/27 12:31:56;;;;;;;26.00;11.37;;;4.40;99.90;;;;;;5012451;28;20513;-75
2022/01/27 12:34:23;;;;;;;23.77;10.43;;;4.40;99.90;;;;;;5017219;28;20517;-73
2022/01/27 12:37:06;;;;;;;23.93;11.40;;;4.50;99.90;;;;;;5024939;28;20508;-74
2022/01/27 12:39:36;;;;;;;25.43;10.97;;;4.50;99.90;;;;;;5000714;28;20459;-75
2022/01/27 12:42:05;;;;;;;19.90;10.50;;;4.50;99.90;;;;;;5020695;28;20900;-75
2022/01/27 12:44:32;;;;;;;24.10;9.90;;;4.60;99.90;;;;;;5022189;28;20494;-75
2022/01/27 12:47:08;;;;;;;24.23;10.80;;;4.70;99.90;;;;;;5023996;28;20445;-74
2022/01/27 12:49:43;;;;;;;20.70;8.73;;;4.70;99.90;;;;;;5010545;28;20445;-73
2022/01/27 12:52:14;;;;;;;21.33;9.87;;;4.60;99.90;;;;;;5005858;28;20454;-74
2022/01/27 12:54:42;;;;;;;23.33;10.30;;;4.60;99.90;;;;;;5013325;28;20512;-73
2022/01/27 12:57:10;;;;;;;21.03;10.00;;;4.50;99.90;;;;;;5013580;28;20541;-72
2022/01/27 12:59:39;;;;;;;18.90;9.37;;;4.50;99.90;;;;;;5013410;28;20446;-72
2022/01/27 13:02:08;;;;;;;20.00;10.43;;;4.50;99.90;;;;;;5020618;28;20484;-73
2022/01/27 13:04:36;;;;;;;20.07;10.20;;;4.50;99.90;;;;;;5011118;28;20450;-73
2022/01/27 13:07:04;;;;;;;24.73;10.43;;;4.50;99.90;;;;;;5019569;28;21041;-73
2022/01/27 13:09:35;;;;;;;22.10;10.57;;;4.60;99.90;;;;;;5035205;23;20463;-92